sensor_id;sensor_type;location;lat;lon;timestamp;pressure;altitude;pressure_sealevel;temperature;humidity
60974;BME280;46846;51.528;5.076;2023-08-24T00:02:00;101268.13;;;22.96;49.61
60974;BME280;46846;51.528;5.076;2023-08-24T00:04:27;101271.22;;;22.91;49.74
60974;BME280;46846;51.528;5.076;2023-08-24T00:06:53;101264.16;;;22.89;49.77
60974;BME280;46846;51.528;5.076;2023-08-24T00:09:18;101255.19;;;22.88;49.77
60974;BME280;46846;51.528;5.076;2023-08-24T00:11:44;101246.53;;;22.83;49.80
60974;BME280;46846;51.528;5.076;2023-08-24T00:14:09;101247.66;;;22.80;49.67
60974;BME280;46846;51.528;5.076;2023-08-24T00:16:35;101255.28;;;22.75;49.92
60974;BME280;46846;51.528;5.076;2023-08-24T00:19:00;101250.72;;;22.76;49.89
60974;BME280;46846;51.528;5.076;2023-08-24T00:21:26;101249.84;;;22.75;49.81
60974;BME280;46846;51.528;5.076;2023-08-24T00:23:52;101243.81;;;22.72;49.81
60974;BME280;46846;51.528;5.076;2023-08-24T00:26:18;101248.75;;;22.66;49.92
60974;BME280;46846;51.528;5.076;2023-08-24T00:28:43;101245.44;;;22.63;50.21
60974;BME280;46846;51.528;5.076;2023-08-24T00:31:09;101247.25;;;22.62;49.92
60974;BME280;46846;51.528;5.076;2023-08-24T00:33:34;101241.09;;;22.60;50.15
60974;BME280;46846;51.528;5.076;2023-08-24T00:36:05;101236.78;;;22.58;50.03
60974;BME280;46846;51.528;5.076;2023-08-24T00:38:30;101230.84;;;22.52;50.03
60974;BME280;46846;51.528;5.076;2023-08-24T00:40:57;101228.16;;;22.52;50.03
60974;BME280;46846;51.528;5.076;2023-08-24T00:43:25;101226.66;;;22.48;50.10
60974;BME280;46846;51.528;5.076;2023-08-24T00:45:51;101223.94;;;22.48;50.05
60974;BME280;46846;51.528;5.076;2023-08-24T00:48:18;101235.78;;;22.47;50.02
60974;BME280;46846;51.528;5.076;2023-08-24T00:50:44;101230.34;;;22.47;50.23
60974;BME280;46846;51.528;5.076;2023-08-24T00:53:10;101224.41;;;22.42;50.06
60974;BME280;46846;51.528;5.076;2023-08-24T00:55:35;101230.09;;;22.39;50.15
60974;BME280;46846;51.528;5.076;2023-08-24T00:58:02;101225.63;;;22.38;50.17
60974;BME280;46846;51.528;5.076;2023-08-24T01:00:28;101218.75;;;22.34;50.46
60974;BME280;46846;51.528;5.076;2023-08-24T01:02:54;101224.41;;;22.31;50.33
60974;BME280;46846;51.528;5.076;2023-08-24T01:05:19;101229.22;;;22.27;50.37
60974;BME280;46846;51.528;5.076;2023-08-24T01:07:45;101224.88;;;22.24;50.40
60974;BME280;46846;51.528;5.076;2023-08-24T01:10:11;101222.28;;;22.23;50.48
60974;BME280;46846;51.528;5.076;2023-08-24T01:13:09;101215.16;;;22.22;50.28
60974;BME280;46846;51.528;5.076;2023-08-24T01:15:47;101219.59;;;22.23;50.19
60974;BME280;46846;51.528;5.076;2023-08-24T01:18:16;101219.94;;;22.18;50.27
60974;BME280;46846;51.528;5.076;2023-08-24T01:20:42;101223.63;;;22.17;50.56
60974;BME280;46846;51.528;5.076;2023-08-24T01:23:48;101228.53;;;22.12;50.53
60974;BME280;46846;51.528;5.076;2023-08-24T01:26:20;101235.41;;;22.05;50.70
60974;BME280;46846;51.528;5.076;2023-08-24T01:28:47;101227.28;;;22.05;50.28
60974;BME280;46846;51.528;5.076;2023-08-24T01:31:14;101221.50;;;22.09;50.63
60974;BME280;46846;51.528;5.076;2023-08-24T01:33:41;101223.59;;;22.06;50.67
60974;BME280;46846;51.528;5.076;2023-08-24T01:36:08;101217.66;;;22.01;50.61
60974;BME280;46846;51.528;5.076;2023-08-24T01:38:34;101209.78;;;21.97;50.87
60974;BME280;46846;51.528;5.076;2023-08-24T01:43:32;101224.78;;;21.90;50.83
60974;BME280;46846;51.528;5.076;2023-08-24T01:46:03;101227.75;;;21.87;50.93
60974;BME280;46846;51.528;5.076;2023-08-24T01:48:29;101226.00;;;21.86;50.87
60974;BME280;46846;51.528;5.076;2023-08-24T01:50:57;101220.72;;;21.84;51.05
60974;BME280;46846;51.528;5.076;2023-08-24T01:53:22;101211.50;;;21.87;50.93
60974;BME280;46846;51.528;5.076;2023-08-24T01:55:48;101201.63;;;21.86;51.08
60974;BME280;46846;51.528;5.076;2023-08-24T01:58:13;101203.34;;;21.87;51.04
60974;BME280;46846;51.528;5.076;2023-08-24T02:00:39;101202.84;;;21.82;50.95
60974;BME280;46846;51.528;5.076;2023-08-24T02:03:04;101215.88;;;21.77;51.02
60974;BME280;46846;51.528;5.076;2023-08-24T02:05:30;101227.78;;;21.74;51.30
60974;BME280;46846;51.528;5.076;2023-08-24T02:07:55;101229.88;;;21.70;51.13
60974;BME280;46846;51.528;5.076;2023-08-24T02:10:22;101216.22;;;21.72;51.43
60974;BME280;46846;51.528;5.076;2023-08-24T02:12:48;101201.81;;;21.71;51.23
60974;BME280;46846;51.528;5.076;2023-08-24T02:15:13;101200.53;;;21.64;51.15
60974;BME280;46846;51.528;5.076;2023-08-24T02:17:38;101218.72;;;21.62;51.44
60974;BME280;46846;51.528;5.076;2023-08-24T02:20:05;101213.66;;;21.57;51.16
60974;BME280;46846;51.528;5.076;2023-08-24T02:22:31;101211.81;;;21.58;51.26
60974;BME280;46846;51.528;5.076;2023-08-24T02:24:56;101199.47;;;21.54;51.39
60974;BME280;46846;51.528;5.076;2023-08-24T02:27:22;101188.19;;;21.60;51.83
60974;BME280;46846;51.528;5.076;2023-08-24T02:29:47;101182.53;;;21.63;51.77
60974;BME280;46846;51.528;5.076;2023-08-24T02:32:12;101166.63;;;21.58;51.48
60974;BME280;46846;51.528;5.076;2023-08-24T02:34:38;101162.97;;;21.60;51.91
60974;BME280;46846;51.528;5.076;2023-08-24T02:37:04;101152.63;;;21.65;52.80
60974;BME280;46846;51.528;5.076;2023-08-24T02:39:29;101155.06;;;21.56;52.04
60974;BME280;46846;51.528;5.076;2023-08-24T02:41:55;101148.19;;;21.52;51.94
60974;BME280;46846;51.528;5.076;2023-08-24T02:44:20;101138.91;;;21.43;52.02
60974;BME280;46846;51.528;5.076;2023-08-24T02:46:48;101119.72;;;21.47;51.97
60974;BME280;46846;51.528;5.076;2023-08-24T02:49:13;101078.25;;;21.46;52.30
60974;BME280;46846;51.528;5.076;2023-08-24T02:51:39;101046.16;;;21.53;52.01
60974;BME280;46846;51.528;5.076;2023-08-24T02:54:04;101044.16;;;21.43;52.67
60974;BME280;46846;51.528;5.076;2023-08-24T02:56:30;101054.38;;;21.40;52.34
60974;BME280;46846;51.528;5.076;2023-08-24T02:58:55;101055.47;;;21.37;55.31
60974;BME280;46846;51.528;5.076;2023-08-24T03:01:21;101047.91;;;21.29;52.32
60974;BME280;46846;51.528;5.076;2023-08-24T03:03:46;101039.19;;;21.26;52.83
60974;BME280;46846;51.528;5.076;2023-08-24T03:06:12;101033.78;;;21.26;52.31
60974;BME280;46846;51.528;5.076;2023-08-24T03:08:37;101037.69;;;21.22;52.64
60974;BME280;46846;51.528;5.076;2023-08-24T03:11:03;101028.47;;;21.24;52.47
60974;BME280;46846;51.528;5.076;2023-08-24T03:13:30;101052.22;;;21.21;52.52
60974;BME280;46846;51.528;5.076;2023-08-24T03:15:56;101028.94;;;21.18;53.05
60974;BME280;46846;51.528;5.076;2023-08-24T03:18:22;101034.47;;;21.16;53.30
60974;BME280;46846;51.528;5.076;2023-08-24T03:20:48;101022.28;;;21.11;52.92
60974;BME280;46846;51.528;5.076;2023-08-24T03:23:15;101018.69;;;21.10;52.74
60974;BME280;46846;51.528;5.076;2023-08-24T03:25:41;101020.78;;;21.07;53.34
60974;BME280;46846;51.528;5.076;2023-08-24T03:28:08;101021.91;;;21.04;52.84
60974;BME280;46846;51.528;5.076;2023-08-24T03:30:45;101012.66;;;21.07;52.84
60974;BME280;46846;51.528;5.076;2023-08-24T03:33:11;101024.59;;;21.04;53.14
60974;BME280;46846;51.528;5.076;2023-08-24T03:35:36;101041.94;;;21.01;53.06
60974;BME280;46846;51.528;5.076;2023-08-24T03:38:02;101030.22;;;21.01;53.79
60974;BME280;46846;51.528;5.076;2023-08-24T03:40:28;101022.38;;;20.98;53.66
60974;BME280;46846;51.528;5.076;2023-08-24T03:42:53;101025.41;;;20.93;53.10
60974;BME280;46846;51.528;5.076;2023-08-24T03:45:20;101020.84;;;20.94;53.28
60974;BME280;46846;51.528;5.076;2023-08-24T03:47:45;101018.50;;;20.89;53.02
60974;BME280;46846;51.528;5.076;2023-08-24T03:50:11;101032.38;;;20.84;53.20
60974;BME280;46846;51.528;5.076;2023-08-24T03:52:36;101029.88;;;20.81;53.77
60974;BME280;46846;51.528;5.076;2023-08-24T03:55:02;101027.28;;;20.80;52.88
60974;BME280;46846;51.528;5.076;2023-08-24T03:57:27;101031.81;;;20.79;53.32
60974;BME280;46846;51.528;5.076;2023-08-24T03:59:53;101032.69;;;20.80;53.53
60974;BME280;46846;51.528;5.076;2023-08-24T04:02:18;101026.53;;;20.77;53.44
60974;BME280;46846;51.528;5.076;2023-08-24T04:04:44;101023.84;;;20.77;53.11
60974;BME280;46846;51.528;5.076;2023-08-24T04:07:09;101034.75;;;20.76;52.94
60974;BME280;46846;51.528;5.076;2023-08-24T04:09:34;101024.16;;;20.73;53.48
60974;BME280;46846;51.528;5.076;2023-08-24T04:12:00;101020.72;;;20.71;53.59
60974;BME280;46846;51.528;5.076;2023-08-24T04:14:25;101027.00;;;20.71;53.22
60974;BME280;46846;51.528;5.076;2023-08-24T04:16:51;101026.13;;;20.71;54.09
60974;BME280;46846;51.528;5.076;2023-08-24T04:19:17;101025.59;;;20.66;53.64
60974;BME280;46846;51.528;5.076;2023-08-24T04:21:42;101019.00;;;20.70;54.10
60974;BME280;46846;51.528;5.076;2023-08-24T04:24:08;101017.56;;;20.77;55.43
60974;BME280;46846;51.528;5.076;2023-08-24T04:26:33;101014.31;;;20.72;54.40
60974;BME280;46846;51.528;5.076;2023-08-24T04:28:59;101024.84;;;20.63;54.05
60974;BME280;46846;51.528;5.076;2023-08-24T04:31:24;101031.47;;;20.59;53.67
60974;BME280;46846;51.528;5.076;2023-08-24T04:33:50;101027.56;;;20.63;54.33
60974;BME280;46846;51.528;5.076;2023-08-24T04:36:15;101027.81;;;20.60;54.34
60974;BME280;46846;51.528;5.076;2023-08-24T04:38:41;101032.56;;;20.57;54.12
60974;BME280;46846;51.528;5.076;2023-08-24T04:41:08;101025.53;;;20.54;53.50
60974;BME280;46846;51.528;5.076;2023-08-24T04:43:34;101037.25;;;20.55;54.56
60974;BME280;46846;51.528;5.076;2023-08-24T04:46:01;101044.56;;;20.53;54.76
60974;BME280;46846;51.528;5.076;2023-08-24T04:48:27;101054.75;;;20.49;54.36
60974;BME280;46846;51.528;5.076;2023-08-24T04:50:52;101051.31;;;20.47;54.58
60974;BME280;46846;51.528;5.076;2023-08-24T04:53:19;101041.47;;;20.46;54.21
60974;BME280;46846;51.528;5.076;2023-08-24T04:55:46;101036.28;;;20.43;54.11
60974;BME280;46846;51.528;5.076;2023-08-24T04:58:12;101041.69;;;20.43;54.50
60974;BME280;46846;51.528;5.076;2023-08-24T05:00:41;101042.66;;;20.42;54.37
60974;BME280;46846;51.528;5.076;2023-08-24T05:03:07;101038.22;;;20.41;54.16
60974;BME280;46846;51.528;5.076;2023-08-24T05:05:34;101037.50;;;20.39;54.45
60974;BME280;46846;51.528;5.076;2023-08-24T05:08:00;101024.97;;;20.38;54.22
60974;BME280;46846;51.528;5.076;2023-08-24T05:10:29;101020.06;;;20.43;54.08
60974;BME280;46846;51.528;5.076;2023-08-24T05:12:55;101018.00;;;20.46;54.61
60974;BME280;46846;51.528;5.076;2023-08-24T05:15:20;101020.41;;;20.38;53.85
60974;BME280;46846;51.528;5.076;2023-08-24T05:17:46;101014.78;;;20.41;54.45
60974;BME280;46846;51.528;5.076;2023-08-24T05:20:11;101015.41;;;20.45;55.83
60974;BME280;46846;51.528;5.076;2023-08-24T05:22:37;101006.78;;;20.40;55.28
60974;BME280;46846;51.528;5.076;2023-08-24T05:25:03;101005.41;;;20.34;54.38
60974;BME280;46846;51.528;5.076;2023-08-24T05:27:30;101011.00;;;20.31;54.81
60974;BME280;46846;51.528;5.076;2023-08-24T05:29:55;101000.19;;;20.31;54.53
60974;BME280;46846;51.528;5.076;2023-08-24T05:32:21;101005.75;;;20.29;54.65
60974;BME280;46846;51.528;5.076;2023-08-24T05:34:46;101009.28;;;20.30;55.28
60974;BME280;46846;51.528;5.076;2023-08-24T05:37:12;101003.16;;;20.28;54.84
60974;BME280;46846;51.528;5.076;2023-08-24T05:39:37;100995.88;;;20.28;55.17
60974;BME280;46846;51.528;5.076;2023-08-24T05:42:03;100988.53;;;20.30;55.07
60974;BME280;46846;51.528;5.076;2023-08-24T05:44:29;100984.97;;;20.30;55.27
60974;BME280;46846;51.528;5.076;2023-08-24T05:46:54;100984.88;;;20.31;54.75
60974;BME280;46846;51.528;5.076;2023-08-24T05:49:20;100986.34;;;20.35;56.03
60974;BME280;46846;51.528;5.076;2023-08-24T05:51:45;100980.94;;;20.35;55.86
60974;BME280;46846;51.528;5.076;2023-08-24T05:54:11;100971.34;;;20.31;55.33
60974;BME280;46846;51.528;5.076;2023-08-24T05:56:36;100960.44;;;20.33;54.97
60974;BME280;46846;51.528;5.076;2023-08-24T05:59:02;100968.66;;;20.31;54.28
60974;BME280;46846;51.528;5.076;2023-08-24T06:01:27;100958.47;;;20.35;56.52
60974;BME280;46846;51.528;5.076;2023-08-24T06:03:53;100968.66;;;20.31;57.03
60974;BME280;46846;51.528;5.076;2023-08-24T06:06:18;100968.00;;;20.28;56.57
60974;BME280;46846;51.528;5.076;2023-08-24T06:08:44;100950.44;;;20.22;56.24
60974;BME280;46846;51.528;5.076;2023-08-24T06:11:09;100951.28;;;20.22;55.74
60974;BME280;46846;51.528;5.076;2023-08-24T06:13:35;100945.75;;;20.24;56.50
60974;BME280;46846;51.528;5.076;2023-08-24T06:16:00;100951.16;;;20.24;55.70
60974;BME280;46846;51.528;5.076;2023-08-24T06:18:27;100942.97;;;20.26;56.12
60974;BME280;46846;51.528;5.076;2023-08-24T06:20:53;100946.28;;;20.29;56.68
60974;BME280;46846;51.528;5.076;2023-08-24T06:23:18;100954.25;;;20.31;55.52
60974;BME280;46846;51.528;5.076;2023-08-24T06:25:44;100947.25;;;20.28;55.07
60974;BME280;46846;51.528;5.076;2023-08-24T06:28:10;100944.72;;;20.38;57.11
60974;BME280;46846;51.528;5.076;2023-08-24T06:30:40;100939.47;;;20.37;56.37
60974;BME280;46846;51.528;5.076;2023-08-24T06:33:06;100945.72;;;20.37;57.19
60974;BME280;46846;51.528;5.076;2023-08-24T06:35:35;100949.16;;;20.39;55.63
60974;BME280;46846;51.528;5.076;2023-08-24T06:38:01;100946.34;;;20.41;58.06
60974;BME280;46846;51.528;5.076;2023-08-24T06:40:27;100953.72;;;20.39;56.51
60974;BME280;46846;51.528;5.076;2023-08-24T06:42:52;100946.97;;;20.44;57.52
60974;BME280;46846;51.528;5.076;2023-08-24T06:45:18;100960.59;;;20.43;56.35
60974;BME280;46846;51.528;5.076;2023-08-24T06:47:44;100957.16;;;20.41;57.92
60974;BME280;46846;51.528;5.076;2023-08-24T06:50:10;100958.22;;;20.51;58.73
60974;BME280;46846;51.528;5.076;2023-08-24T06:52:35;100944.38;;;20.43;56.70
60974;BME280;46846;51.528;5.076;2023-08-24T06:55:01;100934.97;;;20.48;57.27
60974;BME280;46846;51.528;5.076;2023-08-24T06:57:27;100937.53;;;20.50;56.90
60974;BME280;46846;51.528;5.076;2023-08-24T06:59:52;100933.34;;;20.46;58.27
60974;BME280;46846;51.528;5.076;2023-08-24T07:02:18;100935.06;;;20.47;57.05
60974;BME280;46846;51.528;5.076;2023-08-24T07:04:44;100940.47;;;20.47;56.37
60974;BME280;46846;51.528;5.076;2023-08-24T07:07:09;100933.09;;;20.49;55.76
60974;BME280;46846;51.528;5.076;2023-08-24T07:09:35;100919.38;;;20.52;57.21
60974;BME280;46846;51.528;5.076;2023-08-24T07:12:02;100917.66;;;20.51;56.51
60974;BME280;46846;51.528;5.076;2023-08-24T07:14:28;100918.78;;;20.60;57.09
60974;BME280;46846;51.528;5.076;2023-08-24T07:16:54;100918.56;;;20.63;57.99
60974;BME280;46846;51.528;5.076;2023-08-24T07:19:19;100920.03;;;20.67;59.82
60974;BME280;46846;51.528;5.076;2023-08-24T07:21:46;100923.63;;;20.68;56.71
60974;BME280;46846;51.528;5.076;2023-08-24T07:24:11;100926.53;;;20.65;54.91
60974;BME280;46846;51.528;5.076;2023-08-24T07:26:36;100922.63;;;20.69;56.96
60974;BME280;46846;51.528;5.076;2023-08-24T07:29:02;100927.16;;;20.68;56.66
60974;BME280;46846;51.528;5.076;2023-08-24T07:31:27;100922.56;;;20.82;58.87
60974;BME280;46846;51.528;5.076;2023-08-24T07:33:53;100908.50;;;20.89;60.34
60974;BME280;46846;51.528;5.076;2023-08-24T07:36:18;100913.53;;;20.94;60.81
60974;BME280;46846;51.528;5.076;2023-08-24T07:38:47;100919.06;;;20.93;59.57
60974;BME280;46846;51.528;5.076;2023-08-24T07:41:13;100920.28;;;20.88;59.24
60974;BME280;46846;51.528;5.076;2023-08-24T07:43:38;100916.09;;;20.96;59.51
60974;BME280;46846;51.528;5.076;2023-08-24T07:46:04;100921.66;;;20.94;59.00
60974;BME280;46846;51.528;5.076;2023-08-24T07:48:30;100920.56;;;20.97;58.85
60974;BME280;46846;51.528;5.076;2023-08-24T07:50:55;100926.59;;;21.00;58.55
60974;BME280;46846;51.528;5.076;2023-08-24T07:53:21;100937.78;;;21.07;59.21
60974;BME280;46846;51.528;5.076;2023-08-24T07:55:47;100937.06;;;21.05;58.58
60974;BME280;46846;51.528;5.076;2023-08-24T07:58:12;100936.69;;;21.10;58.78
60974;BME280;46846;51.528;5.076;2023-08-24T08:00:38;100926.25;;;21.16;59.59
60974;BME280;46846;51.528;5.076;2023-08-24T08:03:04;100923.31;;;21.20;59.63
60974;BME280;46846;51.528;5.076;2023-08-24T08:05:29;100917.41;;;21.26;59.85
60974;BME280;46846;51.528;5.076;2023-08-24T08:07:55;100911.25;;;21.24;59.97
60974;BME280;46846;51.528;5.076;2023-08-24T08:10:20;100909.03;;;21.29;60.13
60974;BME280;46846;51.528;5.076;2023-08-24T08:12:46;100904.97;;;21.35;60.55
60974;BME280;46846;51.528;5.076;2023-08-24T08:15:12;100911.75;;;21.40;61.12
60974;BME280;46846;51.528;5.076;2023-08-24T08:17:37;100915.06;;;21.33;59.41
60974;BME280;46846;51.528;5.076;2023-08-24T08:20:03;100908.94;;;21.42;60.63
60974;BME280;46846;51.528;5.076;2023-08-24T08:22:29;100904.88;;;21.36;59.21
60974;BME280;46846;51.528;5.076;2023-08-24T08:24:54;100897.47;;;21.38;57.26
60974;BME280;46846;51.528;5.076;2023-08-24T08:27:22;100888.63;;;21.36;56.33
60974;BME280;46846;51.528;5.076;2023-08-24T08:29:48;100883.97;;;21.50;56.82
60974;BME280;46846;51.528;5.076;2023-08-24T08:32:14;100877.44;;;21.52;60.25
60974;BME280;46846;51.528;5.076;2023-08-24T08:34:39;100876.31;;;21.55;57.55
60974;BME280;46846;51.528;5.076;2023-08-24T08:37:04;100871.88;;;21.54;58.72
60974;BME280;46846;51.528;5.076;2023-08-24T08:39:32;100869.91;;;21.67;58.82
60974;BME280;46846;51.528;5.076;2023-08-24T08:41:57;100857.84;;;21.60;59.05
60974;BME280;46846;51.528;5.076;2023-08-24T08:44:23;100857.59;;;21.63;59.07
60974;BME280;46846;51.528;5.076;2023-08-24T08:46:49;100855.78;;;21.75;61.74
60974;BME280;46846;51.528;5.076;2023-08-24T08:49:16;100852.22;;;21.75;59.30
60974;BME280;46846;51.528;5.076;2023-08-24T08:51:42;100842.84;;;21.79;61.05
60974;BME280;46846;51.528;5.076;2023-08-24T08:54:08;100837.56;;;21.77;60.69
60974;BME280;46846;51.528;5.076;2023-08-24T08:56:34;100822.16;;;21.78;60.50
60974;BME280;46846;51.528;5.076;2023-08-24T08:59:00;100817.81;;;21.87;58.88
60974;BME280;46846;51.528;5.076;2023-08-24T09:01:27;100810.19;;;21.92;59.82
60974;BME280;46846;51.528;5.076;2023-08-24T09:03:53;100800.47;;;21.89;60.06
60974;BME280;46846;51.528;5.076;2023-08-24T09:06:19;100795.16;;;21.99;61.27
60974;BME280;46846;51.528;5.076;2023-08-24T09:08:45;100790.13;;;21.94;61.27
60974;BME280;46846;51.528;5.076;2023-08-24T09:11:12;100781.22;;;21.92;60.18
60974;BME280;46846;51.528;5.076;2023-08-24T09:13:37;100771.38;;;22.03;60.31
60974;BME280;46846;51.528;5.076;2023-08-24T09:16:05;100769.50;;;22.03;59.74
60974;BME280;46846;51.528;5.076;2023-08-24T09:18:39;100761.44;;;22.13;58.89
60974;BME280;46846;51.528;5.076;2023-08-24T09:21:11;100751.88;;;22.09;60.01
60974;BME280;46846;51.528;5.076;2023-08-24T09:23:57;100752.84;;;22.08;58.45
60974;BME280;46846;51.528;5.076;2023-08-24T09:26:33;100752.09;;;22.17;60.25
60974;BME280;46846;51.528;5.076;2023-08-24T09:28:59;100748.50;;;22.17;60.66
60974;BME280;46846;51.528;5.076;2023-08-24T09:31:36;100761.53;;;22.23;57.29
60974;BME280;46846;51.528;5.076;2023-08-24T09:34:07;100768.34;;;22.17;59.72
60974;BME280;46846;51.528;5.076;2023-08-24T09:36:34;100781.50;;;22.22;60.80
60974;BME280;46846;51.528;5.076;2023-08-24T09:39:00;100801.78;;;22.27;60.89
60974;BME280;46846;51.528;5.076;2023-08-24T09:41:45;100817.06;;;22.29;59.79
60974;BME280;46846;51.528;5.076;2023-08-24T09:44:10;100821.28;;;22.21;58.60
60974;BME280;46846;51.528;5.076;2023-08-24T09:46:39;100820.28;;;22.22;58.65
60974;BME280;46846;51.528;5.076;2023-08-24T09:49:06;100827.31;;;22.25;57.40
60974;BME280;46846;51.528;5.076;2023-08-24T09:51:36;100842.44;;;22.27;56.13
60974;BME280;46846;51.528;5.076;2023-08-24T09:54:07;100848.00;;;22.26;57.64
60974;BME280;46846;51.528;5.076;2023-08-24T09:56:38;100853.06;;;22.31;57.09
60974;BME280;46846;51.528;5.076;2023-08-24T09:59:10;100858.19;;;22.34;57.78
60974;BME280;46846;51.528;5.076;2023-08-24T10:01:37;100865.22;;;22.36;57.69
60974;BME280;46846;51.528;5.076;2023-08-24T10:04:05;100867.53;;;22.41;56.72
60974;BME280;46846;51.528;5.076;2023-08-24T10:06:30;100869.13;;;22.44;57.95
60974;BME280;46846;51.528;5.076;2023-08-24T10:09:01;100877.88;;;22.47;57.71
60974;BME280;46846;51.528;5.076;2023-08-24T10:11:30;100875.88;;;22.49;56.52
60974;BME280;46846;51.528;5.076;2023-08-24T10:14:20;100881.41;;;22.48;55.51
60974;BME280;46846;51.528;5.076;2023-08-24T10:16:47;100879.59;;;22.48;56.04
60974;BME280;46846;51.528;5.076;2023-08-24T10:19:13;100880.22;;;22.52;55.97
60974;BME280;46846;51.528;5.076;2023-08-24T10:21:40;100884.53;;;22.55;55.75
60974;BME280;46846;51.528;5.076;2023-08-24T10:24:08;100878.69;;;22.59;56.03
60974;BME280;46846;51.528;5.076;2023-08-24T10:26:36;100876.84;;;22.60;57.13
60974;BME280;46846;51.528;5.076;2023-08-24T10:29:03;100887.44;;;22.63;56.25
60974;BME280;46846;51.528;5.076;2023-08-24T10:31:29;100884.72;;;22.63;56.16
60974;BME280;46846;51.528;5.076;2023-08-24T10:33:56;100881.88;;;22.64;56.79
60974;BME280;46846;51.528;5.076;2023-08-24T10:36:22;100879.19;;;22.64;55.86
60974;BME280;46846;51.528;5.076;2023-08-24T10:38:48;100867.47;;;22.64;56.37
60974;BME280;46846;51.528;5.076;2023-08-24T10:41:14;100869.06;;;22.66;55.82
60974;BME280;46846;51.528;5.076;2023-08-24T10:43:40;100863.88;;;22.63;56.29
60974;BME280;46846;51.528;5.076;2023-08-24T10:46:13;100858.31;;;22.65;55.11
60974;BME280;46846;51.528;5.076;2023-08-24T10:53:44;100853.78;;;22.65;55.83
60974;BME280;46846;51.528;5.076;2023-08-24T10:56:11;100843.66;;;22.67;56.42
60974;BME280;46846;51.528;5.076;2023-08-24T10:58:40;100842.06;;;22.65;56.37
60974;BME280;46846;51.528;5.076;2023-08-24T11:01:05;100831.81;;;22.69;55.82
60974;BME280;46846;51.528;5.076;2023-08-24T11:03:34;100821.94;;;22.67;54.97
60974;BME280;46846;51.528;5.076;2023-08-24T11:05:59;100803.63;;;22.60;55.33
60974;BME280;46846;51.528;5.076;2023-08-24T11:08:44;100796.06;;;22.63;55.29
60974;BME280;46846;51.528;5.076;2023-08-24T11:11:23;100791.53;;;22.64;55.17
60974;BME280;46846;51.528;5.076;2023-08-24T11:16:52;100790.84;;;22.72;55.52
60974;BME280;46846;51.528;5.076;2023-08-24T11:19:18;100789.59;;;22.76;56.29
60974;BME280;46846;51.528;5.076;2023-08-24T11:21:45;100778.47;;;22.79;55.82
60974;BME280;46846;51.528;5.076;2023-08-24T11:24:15;100768.47;;;22.79;55.77
60974;BME280;46846;51.528;5.076;2023-08-24T11:26:48;100749.22;;;22.83;55.39
60974;BME280;46846;51.528;5.076;2023-08-24T11:29:15;100740.22;;;22.82;55.79
60974;BME280;46846;51.528;5.076;2023-08-24T11:31:41;100738.09;;;22.86;56.09
60974;BME280;46846;51.528;5.076;2023-08-24T11:34:07;100720.81;;;22.87;55.34
60974;BME280;46846;51.528;5.076;2023-08-24T11:36:53;100705.97;;;22.81;55.16
60974;BME280;46846;51.528;5.076;2023-08-24T11:39:20;100692.41;;;22.81;57.10
60974;BME280;46846;51.528;5.076;2023-08-24T11:42:05;100709.81;;;22.78;55.32
60974;BME280;46846;51.528;5.076;2023-08-24T11:44:51;100721.38;;;22.80;55.57
60974;BME280;46846;51.528;5.076;2023-08-24T11:47:19;100707.22;;;22.77;55.90
60974;BME280;46846;51.528;5.076;2023-08-24T11:49:46;100686.38;;;22.77;56.04
60974;BME280;46846;51.528;5.076;2023-08-24T11:52:11;100677.25;;;22.78;55.64
60974;BME280;46846;51.528;5.076;2023-08-24T11:54:36;100682.25;;;22.83;57.11
60974;BME280;46846;51.528;5.076;2023-08-24T11:57:08;100686.81;;;22.83;55.96
60974;BME280;46846;51.528;5.076;2023-08-24T11:59:35;100652.28;;;22.85;57.69
60974;BME280;46846;51.528;5.076;2023-08-24T12:02:00;100643.16;;;22.86;57.07
60974;BME280;46846;51.528;5.076;2023-08-24T12:04:26;100644.56;;;22.90;58.50
60974;BME280;46846;51.528;5.076;2023-08-24T12:06:51;100662.84;;;22.88;56.37
60974;BME280;46846;51.528;5.076;2023-08-24T12:09:17;100649.28;;;22.88;56.49
60974;BME280;46846;51.528;5.076;2023-08-24T12:11:42;100644.31;;;22.93;56.82
60974;BME280;46846;51.528;5.076;2023-08-24T12:14:16;100659.72;;;22.92;56.10
60974;BME280;46846;51.528;5.076;2023-08-24T12:16:42;100666.16;;;22.91;56.11
60974;BME280;46846;51.528;5.076;2023-08-24T12:19:07;100678.88;;;22.91;57.06
60974;BME280;46846;51.528;5.076;2023-08-24T12:21:33;100687.00;;;22.91;56.81
60974;BME280;46846;51.528;5.076;2023-08-24T12:24:00;100702.00;;;22.95;56.38
60974;BME280;46846;51.528;5.076;2023-08-24T12:26:27;100698.44;;;22.94;56.53
60974;BME280;46846;51.528;5.076;2023-08-24T12:28:53;100699.16;;;22.97;57.07
60974;BME280;46846;51.528;5.076;2023-08-24T12:31:26;100719.44;;;23.02;56.11
60974;BME280;46846;51.528;5.076;2023-08-24T12:34:08;100721.88;;;22.96;56.07
60974;BME280;46846;51.528;5.076;2023-08-24T12:36:35;100703.72;;;22.96;56.65
60974;BME280;46846;51.528;5.076;2023-08-24T12:39:02;100707.19;;;22.98;56.24
60974;BME280;46846;51.528;5.076;2023-08-24T12:41:32;100707.44;;;22.95;57.19
60974;BME280;46846;51.528;5.076;2023-08-24T12:43:57;100706.19;;;22.99;57.47
60974;BME280;46846;51.528;5.076;2023-08-24T12:46:24;100699.63;;;23.02;57.66
60974;BME280;46846;51.528;5.076;2023-08-24T12:48:50;100697.63;;;23.04;57.73
60974;BME280;46846;51.528;5.076;2023-08-24T12:51:15;100702.75;;;23.07;56.81
60974;BME280;46846;51.528;5.076;2023-08-24T12:53:41;100690.91;;;23.08;57.10
60974;BME280;46846;51.528;5.076;2023-08-24T12:56:06;100708.19;;;23.07;56.87
60974;BME280;46846;51.528;5.076;2023-08-24T12:58:32;100706.75;;;23.03;56.34
60974;BME280;46846;51.528;5.076;2023-08-24T13:00:58;100705.75;;;23.04;56.57